sensor_id;sensor_type;location;lat;lon;timestamp;pressure;altitude;pressure_sealevel;temperature;humidity
63500;BME280;49654;51.142;14.924;2022-08-11T00:01:05;100018.78;;;14.17;64.97
63500;BME280;49654;51.142;14.924;2022-08-11T00:03:33;100034.69;;;14.31;64.98
63500;BME280;49654;51.142;14.924;2022-08-11T00:06:01;100025.81;;;14.17;65.08
63500;BME280;49654;51.142;14.924;2022-08-11T00:08:30;100029.59;;;14.14;65.67
63500;BME280;49654;51.142;14.924;2022-08-11T00:11:01;100036.25;;;14.17;65.69
63500;BME280;49654;51.142;14.924;2022-08-11T00:13:33;100035.81;;;14.13;65.97
63500;BME280;49654;51.142;14.924;2022-08-11T00:16:01;100037.31;;;14.08;66.27
63500;BME280;49654;51.142;14.924;2022-08-11T00:18:30;100043.41;;;14.00;65.91
63500;BME280;49654;51.142;14.924;2022-08-11T00:21:05;100021.34;;;13.88;66.60
63500;BME280;49654;51.142;14.924;2022-08-11T00:23:32;100040.00;;;13.99;66.59
63500;BME280;49654;51.142;14.924;2022-08-11T00:26:05;100036.41;;;14.00;66.52
63500;BME280;49654;51.142;14.924;2022-08-11T00:28:34;100031.34;;;13.99;66.49
63500;BME280;49654;51.142;14.924;2022-08-11T00:31:03;100033.88;;;13.92;66.06
63500;BME280;49654;51.142;14.924;2022-08-11T00:33:34;100028.78;;;13.91;66.84
63500;BME280;49654;51.142;14.924;2022-08-11T00:36:04;100029.97;;;13.88;67.26
63500;BME280;49654;51.142;14.924;2022-08-11T00:38:35;100024.28;;;13.85;67.35
63500;BME280;49654;51.142;14.924;2022-08-11T00:41:13;100031.19;;;13.77;66.70
63500;BME280;49654;51.142;14.924;2022-08-11T00:43:50;100023.41;;;13.69;67.19
63500;BME280;49654;51.142;14.924;2022-08-11T00:46:34;100023.63;;;13.60;66.89
63500;BME280;49654;51.142;14.924;2022-08-11T00:49:12;100007.22;;;13.51;67.40
63500;BME280;49654;51.142;14.924;2022-08-11T00:51:51;100026.25;;;13.60;67.22
63500;BME280;49654;51.142;14.924;2022-08-11T00:57:43;100019.56;;;13.57;67.73
63500;BME280;49654;51.142;14.924;2022-08-11T01:00:18;100032.28;;;13.60;68.39
63500;BME280;49654;51.142;14.924;2022-08-11T01:03:05;100029.66;;;13.60;68.62
63500;BME280;49654;51.142;14.924;2022-08-11T01:05:49;100020.41;;;13.58;68.60
63500;BME280;49654;51.142;14.924;2022-08-11T01:08:50;100024.69;;;13.50;67.97
63500;BME280;49654;51.142;14.924;2022-08-11T01:11:45;100030.75;;;13.43;67.82
63500;BME280;49654;51.142;14.924;2022-08-11T01:14:55;100018.97;;;13.47;67.66
63500;BME280;49654;51.142;14.924;2022-08-11T01:21:08;100011.75;;;13.26;67.63
63500;BME280;49654;51.142;14.924;2022-08-11T01:24:14;100019.09;;;13.22;67.38
63500;BME280;49654;51.142;14.924;2022-08-11T01:27:09;100020.06;;;13.21;68.26
63500;BME280;49654;51.142;14.924;2022-08-11T01:30:09;100026.59;;;13.17;68.71
63500;BME280;49654;51.142;14.924;2022-08-11T01:33:19;100031.53;;;13.12;68.22
63500;BME280;49654;51.142;14.924;2022-08-11T01:36:38;100034.63;;;13.08;68.41
63500;BME280;49654;51.142;14.924;2022-08-11T01:39:30;100029.25;;;13.09;68.68
63500;BME280;49654;51.142;14.924;2022-08-11T01:42:09;100017.22;;;13.00;69.00
63500;BME280;49654;51.142;14.924;2022-08-11T01:45:06;100032.31;;;13.13;69.10
63500;BME280;49654;51.142;14.924;2022-08-11T01:47:39;100029.72;;;13.13;69.51
63500;BME280;49654;51.142;14.924;2022-08-11T01:50:24;100029.22;;;13.17;69.89
63500;BME280;49654;51.142;14.924;2022-08-11T01:53:03;100020.28;;;13.12;69.73
63500;BME280;49654;51.142;14.924;2022-08-11T01:55:39;100018.69;;;13.02;69.54
63500;BME280;49654;51.142;14.924;2022-08-11T01:58:25;100008.13;;;12.88;69.19
63500;BME280;49654;51.142;14.924;2022-08-11T02:01:10;100024.59;;;12.88;69.66
63500;BME280;49654;51.142;14.924;2022-08-11T02:03:46;100008.81;;;12.82;69.32
63500;BME280;49654;51.142;14.924;2022-08-11T02:06:21;100026.06;;;12.91;69.56
63500;BME280;49654;51.142;14.924;2022-08-11T02:09:19;100029.47;;;12.91;69.33
63500;BME280;49654;51.142;14.924;2022-08-11T02:11:51;100022.50;;;12.84;69.96
63500;BME280;49654;51.142;14.924;2022-08-11T02:14:25;100025.59;;;12.79;71.21
63500;BME280;49654;51.142;14.924;2022-08-11T02:17:11;100022.16;;;12.87;71.32
63500;BME280;49654;51.142;14.924;2022-08-11T02:19:48;100025.06;;;12.92;71.04
63500;BME280;49654;51.142;14.924;2022-08-11T02:22:41;100030.28;;;12.92;70.91
63500;BME280;49654;51.142;14.924;2022-08-11T02:25:36;100030.75;;;12.95;69.83
63500;BME280;49654;51.142;14.924;2022-08-11T02:28:06;100034.38;;;12.94;69.66
63500;BME280;49654;51.142;14.924;2022-08-11T02:30:45;100031.44;;;12.89;69.63
63500;BME280;49654;51.142;14.924;2022-08-11T02:33:37;100034.72;;;12.75;68.75
63500;BME280;49654;51.142;14.924;2022-08-11T02:36:10;100032.94;;;12.75;69.68
63500;BME280;49654;51.142;14.924;2022-08-11T02:38:48;100013.47;;;12.55;69.55
63500;BME280;49654;51.142;14.924;2022-08-11T02:41:25;100035.25;;;12.62;70.44
63500;BME280;49654;51.142;14.924;2022-08-11T02:44:23;100043.44;;;12.51;70.53
63500;BME280;49654;51.142;14.924;2022-08-11T02:47:02;100033.16;;;12.41;70.29
63500;BME280;49654;51.142;14.924;2022-08-11T02:49:39;100045.69;;;12.46;70.90
63500;BME280;49654;51.142;14.924;2022-08-11T02:52:23;100053.38;;;12.47;70.58
63500;BME280;49654;51.142;14.924;2022-08-11T02:55:01;100044.56;;;12.48;69.94
63500;BME280;49654;51.142;14.924;2022-08-11T02:57:37;100045.72;;;12.38;70.46
63500;BME280;49654;51.142;14.924;2022-08-11T03:00:08;100040.47;;;12.46;70.55
63500;BME280;49654;51.142;14.924;2022-08-11T03:02:45;100027.50;;;12.30;70.77
63500;BME280;49654;51.142;14.924;2022-08-11T03:05:22;100038.88;;;12.45;70.78
63500;BME280;49654;51.142;14.924;2022-08-11T03:08:06;100047.34;;;12.47;71.22
63500;BME280;49654;51.142;14.924;2022-08-11T03:10:42;100048.66;;;12.43;71.65
63500;BME280;49654;51.142;14.924;2022-08-11T03:13:39;100043.59;;;12.33;72.17
63500;BME280;49654;51.142;14.924;2022-08-11T03:16:32;100055.00;;;12.32;72.38
63500;BME280;49654;51.142;14.924;2022-08-11T03:19:18;100059.41;;;12.32;72.58
63500;BME280;49654;51.142;14.924;2022-08-11T03:21:58;100039.22;;;12.17;72.72
63500;BME280;49654;51.142;14.924;2022-08-11T03:24:30;100043.28;;;12.20;72.40
63500;BME280;49654;51.142;14.924;2022-08-11T03:27:04;100053.53;;;12.38;72.13
63500;BME280;49654;51.142;14.924;2022-08-11T03:29:38;100046.38;;;12.40;71.43
63500;BME280;49654;51.142;14.924;2022-08-11T03:32:18;100056.78;;;12.40;71.09
63500;BME280;49654;51.142;14.924;2022-08-11T03:34:49;100049.47;;;12.35;71.58
63500;BME280;49654;51.142;14.924;2022-08-11T03:37:29;100054.69;;;12.35;71.46
63500;BME280;49654;51.142;14.924;2022-08-11T03:40:28;100053.53;;;12.21;70.88
63500;BME280;49654;51.142;14.924;2022-08-11T03:43:23;100046.38;;;12.15;71.70
63500;BME280;49654;51.142;14.924;2022-08-11T03:46:02;100043.13;;;12.05;72.28
63500;BME280;49654;51.142;14.924;2022-08-11T03:48:39;100051.09;;;12.03;72.84
63500;BME280;49654;51.142;14.924;2022-08-11T03:51:14;100036.63;;;12.01;72.33
63500;BME280;49654;51.142;14.924;2022-08-11T03:53:59;100044.44;;;12.17;73.24
63500;BME280;49654;51.142;14.924;2022-08-11T03:56:59;100037.13;;;12.21;73.01
63500;BME280;49654;51.142;14.924;2022-08-11T04:12:24;100041.66;;;12.27;74.36
63500;BME280;49654;51.142;14.924;2022-08-11T04:15:11;100040.84;;;12.43;74.52
63500;BME280;49654;51.142;14.924;2022-08-11T04:18:18;100001.59;;;12.28;73.72
63500;BME280;49654;51.142;14.924;2022-08-11T04:21:07;100045.66;;;12.70;73.31
63500;BME280;49654;51.142;14.924;2022-08-11T04:24:02;100032.63;;;12.78;72.99
63500;BME280;49654;51.142;14.924;2022-08-11T04:27:05;100040.44;;;12.78;72.69
63500;BME280;49654;51.142;14.924;2022-08-11T04:29:48;100046.25;;;12.89;72.61
63500;BME280;49654;51.142;14.924;2022-08-11T04:32:38;100037.00;;;12.86;72.86
63500;BME280;49654;51.142;14.924;2022-08-11T04:35:31;100047.00;;;13.06;72.77
63500;BME280;49654;51.142;14.924;2022-08-11T04:41:32;100038.31;;;13.21;73.87
63500;BME280;49654;51.142;14.924;2022-08-11T04:44:47;100047.78;;;13.22;74.40
63500;BME280;49654;51.142;14.924;2022-08-11T04:47:43;100047.72;;;13.39;74.45
63500;BME280;49654;51.142;14.924;2022-08-11T04:50:50;100045.13;;;13.39;74.81
63500;BME280;49654;51.142;14.924;2022-08-11T04:53:47;100037.53;;;13.52;74.68
63500;BME280;49654;51.142;14.924;2022-08-11T04:56:35;100032.28;;;13.60;74.21
63500;BME280;49654;51.142;14.924;2022-08-11T04:59:39;100033.63;;;13.79;73.91
63500;BME280;49654;51.142;14.924;2022-08-11T05:02:48;100042.06;;;14.04;73.45
63500;BME280;49654;51.142;14.924;2022-08-11T05:05:34;100032.78;;;14.24;73.30
63500;BME280;49654;51.142;14.924;2022-08-11T05:08:51;100037.41;;;14.37;73.62
63500;BME280;49654;51.142;14.924;2022-08-11T05:11:52;100043.50;;;14.52;73.84
63500;BME280;49654;51.142;14.924;2022-08-11T05:14:29;100031.88;;;14.70;73.24
63500;BME280;49654;51.142;14.924;2022-08-11T05:17:16;100042.06;;;14.80;73.30
63500;BME280;49654;51.142;14.924;2022-08-11T05:20:09;100011.59;;;14.72;72.87
63500;BME280;49654;51.142;14.924;2022-08-11T05:22:55;100044.66;;;14.94;72.81
63500;BME280;49654;51.142;14.924;2022-08-11T05:25:46;100051.63;;;15.02;72.66
63500;BME280;49654;51.142;14.924;2022-08-11T05:28:34;100046.47;;;15.09;72.90
63500;BME280;49654;51.142;14.924;2022-08-11T05:31:22;100053.84;;;15.20;72.54
63500;BME280;49654;51.142;14.924;2022-08-11T05:34:10;100050.97;;;15.30;72.45
63500;BME280;49654;51.142;14.924;2022-08-11T05:36:59;100036.13;;;15.37;71.93
63500;BME280;49654;51.142;14.924;2022-08-11T05:39:35;100053.44;;;15.52;71.38
63500;BME280;49654;51.142;14.924;2022-08-11T05:42:24;100056.31;;;15.58;71.37
63500;BME280;49654;51.142;14.924;2022-08-11T05:45:11;100058.53;;;15.75;70.82
63500;BME280;49654;51.142;14.924;2022-08-11T05:47:56;100066.72;;;15.87;71.00
63500;BME280;49654;51.142;14.924;2022-08-11T05:50:49;100055.91;;;15.97;71.07
63500;BME280;49654;51.142;14.924;2022-08-11T05:53:43;100050.38;;;16.07;70.88
63500;BME280;49654;51.142;14.924;2022-08-11T05:56:28;100051.28;;;16.20;69.97
63500;BME280;49654;51.142;14.924;2022-08-11T05:58:58;100053.41;;;16.32;69.87
63500;BME280;49654;51.142;14.924;2022-08-11T06:01:28;100038.50;;;16.32;69.76
63500;BME280;49654;51.142;14.924;2022-08-11T06:03:58;100059.81;;;16.57;69.84
63500;BME280;49654;51.142;14.924;2022-08-11T06:06:47;100062.94;;;16.67;69.96
63500;BME280;49654;51.142;14.924;2022-08-11T06:09:23;100057.78;;;16.81;70.07
63500;BME280;49654;51.142;14.924;2022-08-11T06:11:51;100061.13;;;16.96;69.35
63500;BME280;49654;51.142;14.924;2022-08-11T06:14:21;100066.44;;;17.16;69.08
63500;BME280;49654;51.142;14.924;2022-08-11T06:16:49;100069.94;;;17.30;68.90
63500;BME280;49654;51.142;14.924;2022-08-11T06:19:19;100071.22;;;17.47;68.17
63500;BME280;49654;51.142;14.924;2022-08-11T06:21:48;100057.72;;;17.57;67.05
63500;BME280;49654;51.142;14.924;2022-08-11T06:24:17;100068.66;;;17.67;66.48
63500;BME280;49654;51.142;14.924;2022-08-11T06:26:50;100076.78;;;17.79;65.92
63500;BME280;49654;51.142;14.924;2022-08-11T06:29:19;100073.59;;;17.96;64.50
63500;BME280;49654;51.142;14.924;2022-08-11T06:31:52;100087.75;;;18.15;63.71
63500;BME280;49654;51.142;14.924;2022-08-11T06:34:30;100089.38;;;18.30;62.64
63500;BME280;49654;51.142;14.924;2022-08-11T06:37:13;100085.34;;;18.47;61.91
63500;BME280;49654;51.142;14.924;2022-08-11T06:39:47;100079.22;;;18.66;59.92
63500;BME280;49654;51.142;14.924;2022-08-11T06:42:31;100095.25;;;18.78;60.15
63500;BME280;49654;51.142;14.924;2022-08-11T06:45:06;100092.81;;;18.83;59.86
63500;BME280;49654;51.142;14.924;2022-08-11T06:47:41;100085.09;;;18.95;59.34
63500;BME280;49654;51.142;14.924;2022-08-11T06:50:15;100092.34;;;19.06;58.99
63500;BME280;49654;51.142;14.924;2022-08-11T06:53:02;100086.88;;;19.08;58.60
63500;BME280;49654;51.142;14.924;2022-08-11T06:55:30;100068.19;;;19.22;57.76
63500;BME280;49654;51.142;14.924;2022-08-11T06:58:20;100083.28;;;19.47;56.69
63500;BME280;49654;51.142;14.924;2022-08-11T07:01:08;100074.50;;;19.60;55.41
63500;BME280;49654;51.142;14.924;2022-08-11T07:03:38;100078.28;;;19.77;55.78
63500;BME280;49654;51.142;14.924;2022-08-11T07:06:20;100072.19;;;20.08;54.92
63500;BME280;49654;51.142;14.924;2022-08-11T07:09:14;100061.63;;;20.08;54.50
63500;BME280;49654;51.142;14.924;2022-08-11T07:12:16;100070.81;;;20.31;53.24
63500;BME280;49654;51.142;14.924;2022-08-11T07:15:08;100065.69;;;20.61;52.98
63500;BME280;49654;51.142;14.924;2022-08-11T07:17:57;100061.84;;;20.82;52.19
63500;BME280;49654;51.142;14.924;2022-08-11T07:20:41;100065.03;;;21.02;51.92
63500;BME280;49654;51.142;14.924;2022-08-11T07:23:28;100058.28;;;21.43;50.20
63500;BME280;49654;51.142;14.924;2022-08-11T07:26:16;100062.63;;;21.67;48.52
63500;BME280;49654;51.142;14.924;2022-08-11T07:29:02;100037.53;;;21.58;47.97
63500;BME280;49654;51.142;14.924;2022-08-11T07:31:34;100047.50;;;21.86;48.81
63500;BME280;49654;51.142;14.924;2022-08-11T07:34:18;100033.59;;;21.91;46.69
63500;BME280;49654;51.142;14.924;2022-08-11T07:36:50;100058.03;;;22.16;47.67
63500;BME280;49654;51.142;14.924;2022-08-11T07:39:20;100057.38;;;22.33;46.86
63500;BME280;49654;51.142;14.924;2022-08-11T07:41:48;100047.91;;;22.60;46.68
63500;BME280;49654;51.142;14.924;2022-08-11T07:44:17;100051.34;;;22.72;45.85
63500;BME280;49654;51.142;14.924;2022-08-11T07:46:46;100035.00;;;22.75;45.50
63500;BME280;49654;51.142;14.924;2022-08-11T07:49:34;100045.09;;;23.02;42.95
63500;BME280;49654;51.142;14.924;2022-08-11T07:52:21;100047.38;;;23.10;41.85
63500;BME280;49654;51.142;14.924;2022-08-11T07:55:00;100049.06;;;23.28;41.41
63500;BME280;49654;51.142;14.924;2022-08-11T07:57:30;100042.50;;;23.31;40.11
63500;BME280;49654;51.142;14.924;2022-08-11T08:00:16;100042.56;;;23.36;39.54
63500;BME280;49654;51.142;14.924;2022-08-11T08:03:01;100033.06;;;23.52;39.50
63500;BME280;49654;51.142;14.924;2022-08-11T08:05:48;100038.66;;;23.55;36.92
63500;BME280;49654;51.142;14.924;2022-08-11T08:08:34;100042.84;;;23.80;38.79
63500;BME280;49654;51.142;14.924;2022-08-11T08:11:20;100037.53;;;23.80;36.77
63500;BME280;49654;51.142;14.924;2022-08-11T08:14:06;100034.56;;;23.93;38.13
63500;BME280;49654;51.142;14.924;2022-08-11T08:16:52;100040.69;;;23.93;36.97
63500;BME280;49654;51.142;14.924;2022-08-11T08:19:38;100033.13;;;24.02;36.20
63500;BME280;49654;51.142;14.924;2022-08-11T08:22:10;100031.84;;;24.21;34.07
63500;BME280;49654;51.142;14.924;2022-08-11T08:24:38;100038.50;;;24.41;35.69
63500;BME280;49654;51.142;14.924;2022-08-11T08:27:06;100017.56;;;24.28;35.21
63500;BME280;49654;51.142;14.924;2022-08-11T08:29:36;100029.63;;;24.35;34.95
63500;BME280;49654;51.142;14.924;2022-08-11T08:32:21;100038.72;;;24.56;34.96
63500;BME280;49654;51.142;14.924;2022-08-11T08:34:49;100029.06;;;24.67;33.72
63500;BME280;49654;51.142;14.924;2022-08-11T08:37:19;100035.47;;;24.93;33.94
63500;BME280;49654;51.142;14.924;2022-08-11T08:39:48;100030.09;;;24.88;30.88
63500;BME280;49654;51.142;14.924;2022-08-11T08:42:17;100028.84;;;24.95;33.04
63500;BME280;49654;51.142;14.924;2022-08-11T08:44:50;100025.50;;;25.05;32.67
63500;BME280;49654;51.142;14.924;2022-08-11T08:47:18;100027.13;;;25.06;31.33
63500;BME280;49654;51.142;14.924;2022-08-11T08:49:49;100012.91;;;25.17;31.01
63500;BME280;49654;51.142;14.924;2022-08-11T08:52:22;100023.41;;;25.29;33.26
63500;BME280;49654;51.142;14.924;2022-08-11T08:54:53;100027.69;;;25.57;35.05
63500;BME280;49654;51.142;14.924;2022-08-11T08:57:21;100009.00;;;25.52;33.22
63500;BME280;49654;51.142;14.924;2022-08-11T08:59:49;100029.63;;;25.67;32.52
63500;BME280;49654;51.142;14.924;2022-08-11T09:02:17;100030.75;;;25.76;32.01
63500;BME280;49654;51.142;14.924;2022-08-11T09:04:45;100026.50;;;25.75;31.95
63500;BME280;49654;51.142;14.924;2022-08-11T09:07:16;100024.84;;;25.69;31.59
63500;BME280;49654;51.142;14.924;2022-08-11T09:09:48;100027.16;;;25.60;30.85
63500;BME280;49654;51.142;14.924;2022-08-11T09:12:17;100028.78;;;25.61;30.89
63500;BME280;49654;51.142;14.924;2022-08-11T09:14:47;100027.31;;;25.76;31.01
63500;BME280;49654;51.142;14.924;2022-08-11T09:17:29;100032.59;;;25.70;31.47
63500;BME280;49654;51.142;14.924;2022-08-11T09:20:00;100024.59;;;26.03;33.42
63500;BME280;49654;51.142;14.924;2022-08-11T09:22:29;100019.03;;;26.04;31.90
63500;BME280;49654;51.142;14.924;2022-08-11T09:25:16;100011.84;;;26.00;29.87
63500;BME280;49654;51.142;14.924;2022-08-11T09:28:03;100019.56;;;26.01;32.62
63500;BME280;49654;51.142;14.924;2022-08-11T09:30:30;100000.97;;;26.11;31.08
63500;BME280;49654;51.142;14.924;2022-08-11T09:32:58;100013.03;;;26.24;29.98
63500;BME280;49654;51.142;14.924;2022-08-11T09:35:28;100009.66;;;26.34;31.22
63500;BME280;49654;51.142;14.924;2022-08-11T09:37:56;99997.66;;;26.31;29.56
63500;BME280;49654;51.142;14.924;2022-08-11T09:40:44;100009.59;;;26.29;31.07
63500;BME280;49654;51.142;14.924;2022-08-11T09:43:13;100012.09;;;26.98;29.44
63500;BME280;49654;51.142;14.924;2022-08-11T09:45:58;100003.41;;;28.15;28.89
63500;BME280;49654;51.142;14.924;2022-08-11T09:48:30;99996.59;;;29.91;24.85
63500;BME280;49654;51.142;14.924;2022-08-11T09:51:01;99991.72;;;31.84;22.59
63500;BME280;49654;51.142;14.924;2022-08-11T09:53:31;99980.47;;;32.92;20.89
63500;BME280;49654;51.142;14.924;2022-08-11T09:56:00;99980.13;;;34.06;20.60
63500;BME280;49654;51.142;14.924;2022-08-11T09:58:49;99968.56;;;34.62;18.39
63500;BME280;49654;51.142;14.924;2022-08-11T10:01:16;99966.97;;;35.57;18.49
63500;BME280;49654;51.142;14.924;2022-08-11T10:03:58;99983.69;;;34.98;19.21
63500;BME280;49654;51.142;14.924;2022-08-11T10:06:27;99983.22;;;35.05;19.47
63500;BME280;49654;51.142;14.924;2022-08-11T10:09:16;99973.22;;;33.15;20.89
63500;BME280;49654;51.142;14.924;2022-08-11T10:11:46;99979.44;;;32.38;21.73
63500;BME280;49654;51.142;14.924;2022-08-11T10:14:15;99986.75;;;31.21;23.46
63500;BME280;49654;51.142;14.924;2022-08-11T10:17:05;99977.06;;;30.87;24.64
63500;BME280;49654;51.142;14.924;2022-08-11T10:19:32;99973.88;;;30.85;24.11
63500;BME280;49654;51.142;14.924;2022-08-11T10:22:01;99967.38;;;30.67;24.25
63500;BME280;49654;51.142;14.924;2022-08-11T10:24:46;99954.84;;;29.90;23.62
63500;BME280;49654;51.142;14.924;2022-08-11T10:27:33;99959.16;;;29.57;24.67
63500;BME280;49654;51.142;14.924;2022-08-11T10:30:00;99977.72;;;29.78;25.59
63500;BME280;49654;51.142;14.924;2022-08-11T10:32:46;99915.25;;;29.24;24.36
63500;BME280;49654;51.142;14.924;2022-08-11T10:35:42;99963.19;;;29.15;25.99
63500;BME280;49654;51.142;14.924;2022-08-11T10:38:12;99962.94;;;29.51;24.93
63500;BME280;49654;51.142;14.924;2022-08-11T10:40:44;99956.56;;;29.42;25.91
63500;BME280;49654;51.142;14.924;2022-08-11T10:43:14;99943.41;;;29.16;26.90
63500;BME280;49654;51.142;14.924;2022-08-11T10:45:43;99964.81;;;29.11;26.50
63500;BME280;49654;51.142;14.924;2022-08-11T10:48:29;99896.28;;;28.27;25.63
63500;BME280;49654;51.142;14.924;2022-08-11T10:50:57;99967.81;;;28.45;26.99
63500;BME280;49654;51.142;14.924;2022-08-11T10:53:41;99941.94;;;28.25;27.33
63500;BME280;49654;51.142;14.924;2022-08-11T10:56:28;99941.06;;;28.55;27.24
63500;BME280;49654;51.142;14.924;2022-08-11T10:59:15;99899.63;;;28.58;27.63
63500;BME280;49654;51.142;14.924;2022-08-11T11:01:44;99946.56;;;28.79;26.83
63500;BME280;49654;51.142;14.924;2022-08-11T11:04:12;99939.72;;;28.58;26.16
63500;BME280;49654;51.142;14.924;2022-08-11T11:06:49;99906.47;;;28.19;26.99
63500;BME280;49654;51.142;14.924;2022-08-11T11:09:19;99913.25;;;28.61;25.98
63500;BME280;49654;51.142;14.924;2022-08-11T11:11:50;99929.81;;;29.13;24.97
63500;BME280;49654;51.142;14.924;2022-08-11T11:14:40;99937.34;;;29.74;24.79
63500;BME280;49654;51.142;14.924;2022-08-11T11:17:27;99889.53;;;29.62;25.22
63500;BME280;49654;51.142;14.924;2022-08-11T11:20:18;99909.16;;;29.82;24.77
63500;BME280;49654;51.142;14.924;2022-08-11T11:22:49;99929.72;;;30.15;24.68
63500;BME280;49654;51.142;14.924;2022-08-11T11:25:21;99936.00;;;31.24;21.98
63500;BME280;49654;51.142;14.924;2022-08-11T11:27:59;99907.25;;;30.92;22.54
63500;BME280;49654;51.142;14.924;2022-08-11T11:30:40;99912.22;;;31.83;23.95
63500;BME280;49654;51.142;14.924;2022-08-11T11:33:12;99887.50;;;32.63;19.72
63500;BME280;49654;51.142;14.924;2022-08-11T11:35:51;99915.16;;;35.64;18.73
63500;BME280;49654;51.142;14.924;2022-08-11T11:38:24;99898.03;;;36.48;17.11
63500;BME280;49654;51.142;14.924;2022-08-11T11:40:51;99905.66;;;38.40;16.26
63500;BME280;49654;51.142;14.924;2022-08-11T11:43:34;99896.56;;;38.89;15.93
63500;BME280;49654;51.142;14.924;2022-08-11T11:46:04;99905.38;;;37.35;14.84
63500;BME280;49654;51.142;14.924;2022-08-11T11:48:33;99905.75;;;36.08;18.76
63500;BME280;49654;51.142;14.924;2022-08-11T11:51:01;99902.75;;;37.96;16.20
63500;BME280;49654;51.142;14.924;2022-08-11T11:53:29;99896.34;;;39.10;15.43
63500;BME280;49654;51.142;14.924;2022-08-11T11:55:56;99901.25;;;37.17;16.77
63500;BME280;49654;51.142;14.924;2022-08-11T11:58:25;99907.94;;;36.35;17.65
63500;BME280;49654;51.142;14.924;2022-08-11T12:01:12;99876.22;;;34.83;19.21
63500;BME280;49654;51.142;14.924;2022-08-11T12:03:46;99896.34;;;35.76;18.71
63500;BME280;49654;51.142;14.924;2022-08-11T12:06:16;99885.66;;;37.47;16.10
63500;BME280;49654;51.142;14.924;2022-08-11T12:08:47;99873.31;;;37.37;16.05
63500;BME280;49654;51.142;14.924;2022-08-11T12:11:15;99853.78;;;38.29;15.74
63500;BME280;49654;51.142;14.924;2022-08-11T12:14:08;99826.44;;;41.28;13.06
63500;BME280;49654;51.142;14.924;2022-08-11T12:16:39;99881.09;;;39.21;13.96
63500;BME280;49654;51.142;14.924;2022-08-11T12:19:07;99860.34;;;40.66;12.33
63500;BME280;49654;51.142;14.924;2022-08-11T12:21:35;99846.91;;;40.76;11.64
63500;BME280;49654;51.142;14.924;2022-08-11T12:24:03;99873.22;;;43.08;11.44
63500;BME280;49654;51.142;14.924;2022-08-11T12:27:00;99855.47;;;42.87;11.13
63500;BME280;49654;51.142;14.924;2022-08-11T12:29:46;99866.69;;;43.71;10.78
63500;BME280;49654;51.142;14.924;2022-08-11T12:32:15;99851.94;;;41.89;11.22
63500;BME280;49654;51.142;14.924;2022-08-11T12:34:43;99826.47;;;43.71;10.21
63500;BME280;49654;51.142;14.924;2022-08-11T12:37:12;99838.88;;;46.10;9.22
63500;BME280;49654;51.142;14.924;2022-08-11T12:39:43;99802.63;;;44.84;9.20
63500;BME280;49654;51.142;14.924;2022-08-11T12:42:30;99780.09;;;43.34;10.60
63500;BME280;49654;51.142;14.924;2022-08-11T12:45:16;99837.34;;;44.44;10.43
63500;BME280;49654;51.142;14.924;2022-08-11T12:48:04;99830.13;;;47.44;9.05
63500;BME280;49654;51.142;14.924;2022-08-11T12:50:53;99833.91;;;46.64;8.59
63500;BME280;49654;51.142;14.924;2022-08-11T12:53:42;99821.81;;;44.98;8.82
63500;BME280;49654;51.142;14.924;2022-08-11T12:56:11;99819.59;;;46.28;8.10
63500;BME280;49654;51.142;14.924;2022-08-11T12:58:57;99808.44;;;44.47;9.53
63500;BME280;49654;51.142;14.924;2022-08-11T13:01:42;99803.94;;;46.21;9.07
63500;BME280;49654;51.142;14.924;2022-08-11T13:04:29;99801.22;;;48.58;7.62
63500;BME280;49654;51.142;14.924;2022-08-11T13:07:14;99811.53;;;47.17;7.74
63500;BME280;49654;51.142;14.924;2022-08-11T13:09:43;99749.75;;;48.99;7.53
63500;BME280;49654;51.142;14.924;2022-08-11T13:12:11;99785.38;;;49.93;6.47
63500;BME280;49654;51.142;14.924;2022-08-11T13:14:57;99798.84;;;49.51;6.72
63500;BME280;49654;51.142;14.924;2022-08-11T13:17:26;99806.75;;;48.28;7.96
63500;BME280;49654;51.142;14.924;2022-08-11T13:19:56;99733.63;;;47.28;7.02
63500;BME280;49654;51.142;14.924;2022-08-11T13:22:24;99739.31;;;47.82;6.71
63500;BME280;49654;51.142;14.924;2022-08-11T13:24:53;99774.16;;;46.75;6.91
63500;BME280;49654;51.142;14.924;2022-08-11T13:27:21;99732.06;;;47.30;7.38
63500;BME280;49654;51.142;14.924;2022-08-11T13:29:50;99783.28;;;48.47;7.66
63500;BME280;49654;51.142;14.924;2022-08-11T13:32:38;99766.69;;;50.00;6.60
63500;BME280;49654;51.142;14.924;2022-08-11T13:35:10;99767.50;;;48.98;7.40
63500;BME280;49654;51.142;14.924;2022-08-11T13:37:40;99759.09;;;48.31;7.50
63500;BME280;49654;51.142;14.924;2022-08-11T13:40:09;99783.16;;;48.27;7.38
63500;BME280;49654;51.142;14.924;2022-08-11T13:42:37;99756.81;;;47.95;6.81
63500;BME280;49654;51.142;14.924;2022-08-11T13:45:07;99716.47;;;47.85;6.28
63500;BME280;49654;51.142;14.924;2022-08-11T13:47:36;99754.41;;;47.70;7.39
63500;BME280;49654;51.142;14.924;2022-08-11T13:50:05;99747.56;;;49.10;6.76
63500;BME280;49654;51.142;14.924;2022-08-11T13:52:35;99761.94;;;51.15;6.27
63500;BME280;49654;51.142;14.924;2022-08-11T13:55:04;99765.16;;;47.88;6.71
63500;BME280;49654;51.142;14.924;2022-08-11T13:57:32;99706.50;;;46.96;7.42
63500;BME280;49654;51.142;14.924;2022-08-11T14:00:00;99751.28;;;47.68;8.19
63500;BME280;49654;51.142;14.924;2022-08-11T14:02:40;99757.34;;;47.14;8.13
63500;BME280;49654;51.142;14.924;2022-08-11T14:05:11;99724.84;;;43.62;9.66
63500;BME280;49654;51.142;14.924;2022-08-11T14:07:50;99704.25;;;40.35;12.35
63500;BME280;49654;51.142;14.924;2022-08-11T14:10:18;99744.91;;;43.88;9.70